createdAt,value
2018-02-11T00:00:43.048Z,989.52
2018-02-11T00:01:43.042Z,989.51
2018-02-11T00:02:43.040Z,989.42
2018-02-11T00:04:04.035Z,989.40
2018-02-11T00:04:43.023Z,989.40
2018-02-11T00:05:43.019Z,989.35
2018-02-11T00:06:43.007Z,989.32
2018-02-11T00:07:42.997Z,989.32
2018-02-11T00:08:43.007Z,989.33
2018-02-11T00:10:03.994Z,989.33
2018-02-11T00:10:42.977Z,989.32
2018-02-11T00:11:42.981Z,989.31
2018-02-11T00:12:42.970Z,989.35
2018-02-11T00:13:42.968Z,989.31
2018-02-11T00:14:42.948Z,989.31
2018-02-11T00:16:03.953Z,989.29
2018-02-11T00:16:42.934Z,989.25
2018-02-11T00:17:42.926Z,989.29
2018-02-11T00:18:42.918Z,989.28
2018-02-11T00:19:42.927Z,989.21
2018-02-11T00:20:42.908Z,989.18
2018-02-11T00:22:03.907Z,989.19
2018-02-11T00:22:43.231Z,989.14
2018-02-11T00:23:42.892Z,989.17
2018-02-11T00:24:42.883Z,989.09
2018-02-11T00:25:42.912Z,989.00
2018-02-11T00:26:42.870Z,988.98
2018-02-11T00:28:03.877Z,988.96
2018-02-11T00:28:42.888Z,988.97
2018-02-11T00:29:42.841Z,988.99
2018-02-11T00:30:42.838Z,988.95
2018-02-11T00:31:42.830Z,988.98
2018-02-11T00:32:42.821Z,988.95
2018-02-11T00:34:03.825Z,988.89
2018-02-11T00:34:42.835Z,988.92
2018-02-11T00:35:42.809Z,988.86
2018-02-11T00:36:42.803Z,988.81
2018-02-11T00:37:42.791Z,988.77
2018-02-11T00:38:42.788Z,988.80
2018-02-11T00:40:03.782Z,988.77
2018-02-11T00:40:42.802Z,988.75
2018-02-11T00:41:42.817Z,988.73
2018-02-11T00:42:42.768Z,988.71
2018-02-11T00:43:42.748Z,988.69
2018-02-11T00:44:42.743Z,988.70
2018-02-11T00:46:03.739Z,988.66
2018-02-11T00:46:42.730Z,988.62
2018-02-11T00:47:42.724Z,988.60
2018-02-11T00:48:42.714Z,988.59
2018-02-11T00:49:42.721Z,988.58
2018-02-11T00:50:42.708Z,988.53
2018-02-11T00:52:03.705Z,988.52
2018-02-11T00:52:42.690Z,988.52
2018-02-11T00:53:42.685Z,988.56
2018-02-11T00:54:42.678Z,988.56
2018-02-11T00:55:42.677Z,988.60
2018-02-11T00:56:42.662Z,988.64
2018-02-11T00:58:03.669Z,988.65
2018-02-11T00:58:42.650Z,988.65
2018-02-11T00:59:42.640Z,988.63
2018-02-11T01:00:42.637Z,988.62
2018-02-11T01:01:42.625Z,988.58
2018-02-11T01:02:42.628Z,988.58
2018-02-11T01:04:03.621Z,988.60
2018-02-11T01:04:42.612Z,988.57
2018-02-11T01:05:42.610Z,988.58
2018-02-11T01:06:42.602Z,988.59
2018-02-11T01:07:42.586Z,988.57
2018-02-11T01:08:42.587Z,988.55
2018-02-11T01:10:03.585Z,988.53
2018-02-11T01:10:42.577Z,988.56
2018-02-11T01:11:42.563Z,988.52
2018-02-11T01:12:42.559Z,988.53
2018-02-11T01:13:42.553Z,988.53
2018-02-11T01:14:42.545Z,988.50
2018-02-11T01:16:03.541Z,988.44
2018-02-11T01:16:42.534Z,988.45
2018-02-11T01:17:42.529Z,988.39
2018-02-11T01:18:42.521Z,988.36
2018-02-11T01:19:42.519Z,988.32
2018-02-11T01:20:42.507Z,988.32
2018-02-11T01:22:03.511Z,988.29
2018-02-11T01:22:42.494Z,988.26
2018-02-11T01:23:42.486Z,988.24
2018-02-11T01:24:42.504Z,988.21
2018-02-11T01:25:42.468Z,988.12
2018-02-11T01:26:42.465Z,988.12
2018-02-11T01:28:03.469Z,988.13
2018-02-11T01:28:42.449Z,988.10
2018-02-11T01:29:42.446Z,988.15
2018-02-11T01:30:42.436Z,988.16
2018-02-11T01:31:42.432Z,988.14
2018-02-11T01:32:42.422Z,988.15
2018-02-11T01:34:03.425Z,988.15
2018-02-11T01:34:42.416Z,988.11
2018-02-11T01:35:42.407Z,988.10
2018-02-11T01:36:42.402Z,988.08
2018-02-11T01:37:42.398Z,988.08
2018-02-11T01:38:42.386Z,988.09
2018-02-11T01:40:03.389Z,988.06
2018-02-11T01:40:42.384Z,988.01
2018-02-11T01:41:42.366Z,988.03
2018-02-11T01:42:42.366Z,987.98
2018-02-11T01:43:42.351Z,987.98
2018-02-11T01:44:42.343Z,987.94
2018-02-11T01:46:03.347Z,987.92
2018-02-11T01:46:42.334Z,987.89
2018-02-11T01:47:42.327Z,987.89
2018-02-11T01:48:42.323Z,987.87
2018-02-11T01:49:42.321Z,987.86
2018-02-11T01:50:42.313Z,987.88
2018-02-11T01:52:03.310Z,987.84
2018-02-11T01:52:42.295Z,987.79
2018-02-11T01:53:42.300Z,987.80
2018-02-11T01:54:42.295Z,987.78
2018-02-11T01:55:42.276Z,987.76
2018-02-11T01:56:42.268Z,987.67
2018-02-11T01:58:03.275Z,987.71
2018-02-11T01:58:42.256Z,987.68
2018-02-11T01:59:42.248Z,987.65
2018-02-11T02:00:42.248Z,987.62
2018-02-11T02:01:42.241Z,987.61
2018-02-11T02:02:42.230Z,987.61
2018-02-11T02:04:03.231Z,987.60
2018-02-11T02:04:42.214Z,987.60
2018-02-11T02:05:42.252Z,987.54
2018-02-11T02:06:42.210Z,987.53
2018-02-11T02:07:42.199Z,987.52
2018-02-11T02:08:42.196Z,987.52
2018-02-11T02:10:03.194Z,987.50
2018-02-11T02:10:42.179Z,987.44
2018-02-11T02:11:42.170Z,987.48
2018-02-11T02:12:42.163Z,987.48
2018-02-11T02:13:42.164Z,987.45
2018-02-11T02:14:42.152Z,987.43
2018-02-11T02:16:03.150Z,987.40
2018-02-11T02:16:42.136Z,987.37
2018-02-11T02:17:42.151Z,987.32
2018-02-11T02:18:42.125Z,987.28
2018-02-11T02:19:42.120Z,987.26
2018-02-11T02:20:42.116Z,987.21
2018-02-11T02:22:03.120Z,987.24
2018-02-11T02:22:42.122Z,987.16
2018-02-11T02:23:42.091Z,987.15
2018-02-11T02:24:42.084Z,987.15
2018-02-11T02:25:42.083Z,987.18
2018-02-11T02:26:42.071Z,987.15
2018-02-11T02:28:03.082Z,987.18
2018-02-11T02:28:42.058Z,987.12
2018-02-11T02:29:42.067Z,987.16
2018-02-11T02:30:42.048Z,987.11
2018-02-11T02:31:42.038Z,987.13
2018-02-11T02:32:42.038Z,987.07
2018-02-11T02:34:03.036Z,987.01
2018-02-11T02:34:42.027Z,987.05
2018-02-11T02:35:42.019Z,987.01
2018-02-11T02:36:42.014Z,987.02
2018-02-11T02:37:42.002Z,986.98
2018-02-11T02:38:41.996Z,986.97
2018-02-11T02:40:02.998Z,986.92
2018-02-11T02:40:41.988Z,986.95
2018-02-11T02:41:41.973Z,986.94
2018-02-11T02:42:41.971Z,986.91
2018-02-11T02:43:41.962Z,986.93
2018-02-11T02:44:41.960Z,986.85
2018-02-11T02:46:02.995Z,986.84
2018-02-11T02:46:41.946Z,986.78
2018-02-11T02:47:41.942Z,986.80
2018-02-11T02:48:41.936Z,986.80
2018-02-11T02:49:41.927Z,986.74
2018-02-11T02:50:41.923Z,986.75
2018-02-11T02:52:02.920Z,986.74
2018-02-11T02:52:41.905Z,986.72
2018-02-11T02:53:41.904Z,986.69
2018-02-11T02:54:41.889Z,986.68
2018-02-11T02:55:41.902Z,986.64
2018-02-11T02:56:41.877Z,986.64
2018-02-11T02:58:02.878Z,986.62
2018-02-11T02:58:41.883Z,986.57
2018-02-11T02:59:41.863Z,986.58
2018-02-11T03:00:41.853Z,986.54
2018-02-11T03:01:41.851Z,986.54
2018-02-11T03:02:41.880Z,986.54
2018-02-11T03:04:02.849Z,986.51
2018-02-11T03:04:41.831Z,986.49
2018-02-11T03:05:41.851Z,986.45
2018-02-11T03:06:41.822Z,986.42
2018-02-11T03:07:41.816Z,986.38
2018-02-11T03:08:41.801Z,986.36
2018-02-11T03:10:02.812Z,986.39
2018-02-11T03:10:41.814Z,986.33
2018-02-11T03:11:41.779Z,986.29
2018-02-11T03:12:41.776Z,986.32
2018-02-11T03:13:41.825Z,986.31
2018-02-11T03:14:41.762Z,986.24
2018-02-11T03:16:02.763Z,986.27
2018-02-11T03:16:41.745Z,986.20
2018-02-11T03:17:41.745Z,986.17
2018-02-11T03:18:41.742Z,986.16
2018-02-11T03:19:41.729Z,986.12
2018-02-11T03:20:41.724Z,986.14
2018-02-11T03:22:02.731Z,986.12
2018-02-11T03:22:41.715Z,986.16
2018-02-11T03:23:41.705Z,986.13
2018-02-11T03:24:41.697Z,986.14
2018-02-11T03:25:41.688Z,986.08
2018-02-11T03:26:41.692Z,986.13
2018-02-11T03:28:02.686Z,986.11
2018-02-11T03:28:41.671Z,986.03
2018-02-11T03:29:41.664Z,986.00
2018-02-11T03:30:41.664Z,985.96
2018-02-11T03:31:41.649Z,986.03
2018-02-11T03:32:41.642Z,985.96
2018-02-11T03:34:02.656Z,985.94
2018-02-11T03:34:41.636Z,985.94
2018-02-11T03:35:41.640Z,985.90
2018-02-11T03:36:41.626Z,985.86
2018-02-11T03:37:41.619Z,985.85
2018-02-11T03:38:41.610Z,985.82
2018-02-11T03:40:02.606Z,985.80
2018-02-11T03:40:41.639Z,985.78
2018-02-11T03:41:41.583Z,985.86
2018-02-11T03:42:41.582Z,985.84
2018-02-11T03:43:41.577Z,985.78
2018-02-11T03:44:41.564Z,985.78
2018-02-11T03:46:02.565Z,985.75
2018-02-11T03:46:41.551Z,985.77
2018-02-11T03:47:41.550Z,985.74
2018-02-11T03:48:41.542Z,985.70
2018-02-11T03:49:41.536Z,985.66
2018-02-11T03:50:41.529Z,985.63
2018-02-11T03:52:02.530Z,985.68
2018-02-11T03:52:41.521Z,985.69
2018-02-11T03:53:41.522Z,985.67
2018-02-11T03:54:41.504Z,985.63
2018-02-11T03:55:41.492Z,985.63
2018-02-11T03:56:41.484Z,985.64
2018-02-11T03:58:02.556Z,985.61
2018-02-11T03:58:41.481Z,985.64
2018-02-11T03:59:41.468Z,985.63
2018-02-11T04:00:41.462Z,985.66
2018-02-11T04:01:41.458Z,985.59
2018-02-11T04:02:41.452Z,985.58
2018-02-11T04:04:02.449Z,985.55
2018-02-11T04:04:41.439Z,985.53
2018-02-11T04:05:41.437Z,985.44
2018-02-11T04:06:41.438Z,985.44
2018-02-11T04:07:41.426Z,985.43
2018-02-11T04:08:41.414Z,985.45
2018-02-11T04:10:02.417Z,985.41
2018-02-11T04:10:41.407Z,985.41
2018-02-11T04:11:41.397Z,985.38
2018-02-11T04:12:41.382Z,985.35
2018-02-11T04:13:41.377Z,985.32
2018-02-11T04:14:41.376Z,985.31
2018-02-11T04:16:02.376Z,985.25
2018-02-11T04:16:41.369Z,985.27
2018-02-11T04:17:41.352Z,985.23
2018-02-11T04:18:41.356Z,985.20
2018-02-11T04:19:41.344Z,985.15
2018-02-11T04:20:41.332Z,985.10
2018-02-11T04:22:02.341Z,985.14
2018-02-11T04:22:41.328Z,985.09
2018-02-11T04:23:41.319Z,985.11
2018-02-11T04:24:41.318Z,985.07
2018-02-11T04:25:41.305Z,985.11
2018-02-11T04:26:41.299Z,985.07
2018-02-11T04:28:02.299Z,985.06
2018-02-11T04:28:41.282Z,985.03
2018-02-11T04:29:41.283Z,984.97
2018-02-11T04:30:41.272Z,984.98
2018-02-11T04:31:41.264Z,984.96
2018-02-11T04:32:41.258Z,984.98
2018-02-11T04:34:02.259Z,984.95
2018-02-11T04:34:41.249Z,984.89
2018-02-11T04:35:41.239Z,984.89
2018-02-11T04:36:41.238Z,984.87
2018-02-11T04:37:41.236Z,984.86
2018-02-11T04:38:41.227Z,984.87
2018-02-11T04:40:02.225Z,984.86
2018-02-11T04:40:41.212Z,984.83
2018-02-11T04:41:41.202Z,984.82
2018-02-11T04:42:41.206Z,984.88
2018-02-11T04:43:41.191Z,984.80
2018-02-11T04:44:41.183Z,984.85
2018-02-11T04:46:02.182Z,984.83
2018-02-11T04:46:41.172Z,984.83
2018-02-11T04:47:41.163Z,984.77
2018-02-11T04:48:41.162Z,984.73
2018-02-11T04:49:41.151Z,984.75
2018-02-11T04:50:41.150Z,984.72
2018-02-11T04:52:02.142Z,984.73
2018-02-11T04:52:41.140Z,984.73
2018-02-11T04:53:41.136Z,984.72
2018-02-11T04:54:41.128Z,984.70
2018-02-11T04:55:41.119Z,984.64
2018-02-11T04:56:41.111Z,984.62
2018-02-11T04:58:02.109Z,984.55
2018-02-11T04:58:41.097Z,984.55
2018-02-11T04:59:41.089Z,984.59
2018-02-11T05:00:41.089Z,984.55
2018-02-11T05:01:41.078Z,984.57
2018-02-11T05:02:41.070Z,984.55
2018-02-11T05:04:02.069Z,984.53
2018-02-11T05:04:41.057Z,984.54
2018-02-11T05:05:41.053Z,984.51
2018-02-11T05:06:41.052Z,984.46
2018-02-11T05:07:41.040Z,984.40
2018-02-11T05:08:41.040Z,984.37
2018-02-11T05:10:02.038Z,984.34
2018-02-11T05:10:41.025Z,984.33
2018-02-11T05:11:41.021Z,984.33
2018-02-11T05:12:41.010Z,984.36
2018-02-11T05:13:41.009Z,984.33
2018-02-11T05:14:40.998Z,984.38
2018-02-11T05:16:02.005Z,984.33
2018-02-11T05:16:41.018Z,984.35
2018-02-11T05:17:41.009Z,984.30
2018-02-11T05:18:41.009Z,984.30
2018-02-11T05:19:40.964Z,984.27
2018-02-11T05:20:40.957Z,984.26
2018-02-11T05:22:01.956Z,984.23
2018-02-11T05:22:40.979Z,984.21
2018-02-11T05:23:40.938Z,984.22
2018-02-11T05:24:40.937Z,984.20
2018-02-11T05:25:40.945Z,984.16
2018-02-11T05:26:40.924Z,984.14
2018-02-11T05:28:01.929Z,984.20
2018-02-11T05:28:40.913Z,984.15
2018-02-11T05:29:40.901Z,984.13
2018-02-11T05:30:40.900Z,984.10
2018-02-11T05:31:40.896Z,984.06
2018-02-11T05:32:40.890Z,984.05
2018-02-11T05:34:01.882Z,984.01
2018-02-11T05:34:40.867Z,983.93
2018-02-11T05:35:40.866Z,983.90
2018-02-11T05:36:40.855Z,983.90
2018-02-11T05:37:40.849Z,983.85
2018-02-11T05:38:40.856Z,983.84
2018-02-11T05:40:01.849Z,983.86
2018-02-11T05:40:40.835Z,983.84
2018-02-11T05:41:40.845Z,983.82
2018-02-11T05:42:40.823Z,983.79
2018-02-11T05:43:40.828Z,983.75
2018-02-11T05:44:40.811Z,983.76
2018-02-11T05:46:01.809Z,983.73
2018-02-11T05:46:40.800Z,983.72
2018-02-11T05:47:40.789Z,983.66
2018-02-11T05:48:40.781Z,983.65
2018-02-11T05:49:40.785Z,983.64
2018-02-11T05:50:40.769Z,983.67
2018-02-11T05:52:01.769Z,983.66
2018-02-11T05:52:40.777Z,983.62
2018-02-11T05:53:40.755Z,983.64
2018-02-11T05:54:40.746Z,983.58
2018-02-11T05:55:40.745Z,983.56
2018-02-11T05:56:40.737Z,983.59
2018-02-11T05:58:01.741Z,983.53
2018-02-11T05:58:40.721Z,983.53
2018-02-11T05:59:40.716Z,983.52
2018-02-11T06:00:40.711Z,983.55
2018-02-11T06:01:40.707Z,983.56
2018-02-11T06:02:40.702Z,983.57
2018-02-11T06:04:01.698Z,983.58
2018-02-11T06:04:40.684Z,983.54
2018-02-11T06:05:40.684Z,983.51
2018-02-11T06:06:40.670Z,983.49
2018-02-11T06:07:40.661Z,983.42
2018-02-11T06:08:40.655Z,983.40
2018-02-11T06:10:01.664Z,983.36
2018-02-11T06:10:40.653Z,983.38
2018-02-11T06:11:40.644Z,983.34
2018-02-11T06:12:40.644Z,983.29
2018-02-11T06:13:40.630Z,983.26
2018-02-11T06:14:40.626Z,983.26
2018-02-11T06:16:01.625Z,983.29
2018-02-11T06:16:40.609Z,983.20
2018-02-11T06:17:40.609Z,983.23
2018-02-11T06:18:40.603Z,983.12
2018-02-11T06:19:40.595Z,983.11
2018-02-11T06:20:40.591Z,983.04
2018-02-11T06:22:01.591Z,983.03
2018-02-11T06:22:40.569Z,983.01
2018-02-11T06:23:40.563Z,983.05
2018-02-11T06:24:40.562Z,983.00
2018-02-11T06:25:40.553Z,983.04
2018-02-11T06:26:40.547Z,983.02
2018-02-11T06:28:01.546Z,982.99
2018-02-11T06:28:40.534Z,982.98
2018-02-11T06:29:40.531Z,982.96
2018-02-11T06:30:40.525Z,983.02
2018-02-11T06:31:40.528Z,982.93
2018-02-11T06:32:40.513Z,982.93
2018-02-11T06:34:01.513Z,982.99
2018-02-11T06:34:40.502Z,982.94
2018-02-11T06:35:40.493Z,982.92
2018-02-11T06:36:40.541Z,982.92
2018-02-11T06:37:40.473Z,982.94
2018-02-11T06:38:40.469Z,982.97
2018-02-11T06:40:01.468Z,982.98
2018-02-11T06:40:40.461Z,982.89
2018-02-11T06:41:40.541Z,982.93
2018-02-11T06:42:40.452Z,982.91
2018-02-11T06:43:40.450Z,982.88
2018-02-11T06:44:40.538Z,982.93
2018-02-11T06:46:01.464Z,982.94
2018-02-11T06:46:40.444Z,982.85
2018-02-11T06:47:40.417Z,982.80
2018-02-11T06:48:40.409Z,982.80
2018-02-11T06:49:40.415Z,982.74
2018-02-11T06:50:40.399Z,982.78
2018-02-11T06:52:01.398Z,982.79
2018-02-11T06:52:40.385Z,982.78
2018-02-11T06:53:40.424Z,982.73
2018-02-11T06:54:40.371Z,982.74
2018-02-11T06:55:40.364Z,982.69
2018-02-11T06:56:40.358Z,982.67
2018-02-11T06:58:01.362Z,982.67
2018-02-11T06:58:40.346Z,982.71
2018-02-11T06:59:40.338Z,982.68
2018-02-11T07:00:40.331Z,982.67
2018-02-11T07:01:40.333Z,982.69
2018-02-11T07:02:40.319Z,982.73
2018-02-11T07:04:01.319Z,982.71
2018-02-11T07:04:40.321Z,982.73
2018-02-11T07:05:40.313Z,982.71
2018-02-11T07:06:40.300Z,982.72
2018-02-11T07:07:40.285Z,982.66
2018-02-11T07:08:40.284Z,982.72
2018-02-11T07:10:01.291Z,982.66
2018-02-11T07:10:40.272Z,982.63
2018-02-11T07:11:40.264Z,982.59
2018-02-11T07:12:40.339Z,982.64
2018-02-11T07:13:40.253Z,982.59
2018-02-11T07:14:40.254Z,982.61
2018-02-11T07:16:01.245Z,982.53
2018-02-11T07:16:40.232Z,982.56
2018-02-11T07:17:40.232Z,982.58
2018-02-11T07:18:40.223Z,982.55
2018-02-11T07:19:40.223Z,982.51
2018-02-11T07:20:40.211Z,982.50
2018-02-11T07:22:01.213Z,982.45
2018-02-11T07:22:40.205Z,982.47
2018-02-11T07:23:40.189Z,982.42
2018-02-11T07:24:40.188Z,982.41
2018-02-11T07:25:40.176Z,982.40
2018-02-11T07:26:40.174Z,982.35
2018-02-11T07:28:01.168Z,982.29
2018-02-11T07:28:40.160Z,982.32
2018-02-11T07:29:40.162Z,982.33
2018-02-11T07:30:40.149Z,982.29
2018-02-11T07:31:40.141Z,982.30
2018-02-11T07:32:40.147Z,982.33
2018-02-11T07:34:01.135Z,982.29
2018-02-11T07:34:40.161Z,982.32
2018-02-11T07:35:40.121Z,982.27
2018-02-11T07:36:40.131Z,982.26
2018-02-11T07:37:40.110Z,982.26
2018-02-11T07:38:40.095Z,982.28
2018-02-11T07:40:01.106Z,982.22
2018-02-11T07:40:40.085Z,982.24
2018-02-11T07:41:40.077Z,982.16
2018-02-11T07:42:40.083Z,982.25
2018-02-11T07:43:40.064Z,982.24
2018-02-11T07:44:40.068Z,982.17
2018-02-11T07:46:01.064Z,982.18
2018-02-11T07:46:40.047Z,982.20
2018-02-11T07:47:40.041Z,982.21
2018-02-11T07:48:40.041Z,982.20
2018-02-11T07:49:40.034Z,982.20
2018-02-11T07:50:40.028Z,982.16
2018-02-11T07:52:01.023Z,982.13
2018-02-11T07:52:40.027Z,982.07
2018-02-11T07:53:40.014Z,982.00
2018-02-11T07:54:39.997Z,982.08
2018-02-11T07:55:39.990Z,982.08
2018-02-11T07:56:39.982Z,982.12
2018-02-11T07:58:00.983Z,982.02
2018-02-11T07:58:39.971Z,982.01
2018-02-11T07:59:39.967Z,982.00
2018-02-11T08:00:39.965Z,981.95
2018-02-11T08:01:39.961Z,981.96
2018-02-11T08:02:39.945Z,981.97
2018-02-11T08:04:00.961Z,982.03
2018-02-11T08:04:39.936Z,982.02
2018-02-11T08:05:39.936Z,982.07
2018-02-11T08:06:39.930Z,982.04
2018-02-11T08:07:39.922Z,982.05
2018-02-11T08:08:39.914Z,982.04
2018-02-11T08:10:00.922Z,982.05
2018-02-11T08:10:39.900Z,982.06
2018-02-11T08:11:39.889Z,982.14
2018-02-11T08:12:39.889Z,982.14
2018-02-11T08:13:39.880Z,982.19
2018-02-11T08:14:39.873Z,982.19
2018-02-11T08:16:00.869Z,982.24
2018-02-11T08:16:39.864Z,982.25
2018-02-11T08:17:39.864Z,982.24
2018-02-11T08:18:39.851Z,982.24
2018-02-11T08:19:39.867Z,982.22
2018-02-11T08:20:39.839Z,982.24
2018-02-11T08:22:00.837Z,982.26
2018-02-11T08:22:39.825Z,982.32
2018-02-11T08:23:39.817Z,982.22
2018-02-11T08:24:39.824Z,982.25
2018-02-11T08:25:39.805Z,982.26
2018-02-11T08:26:39.813Z,982.27
2018-02-11T08:28:00.801Z,982.32
2018-02-11T08:28:39.791Z,982.28
2018-02-11T08:29:39.789Z,982.22
2018-02-11T08:30:39.779Z,982.26
2018-02-11T08:31:39.766Z,982.18
2018-02-11T08:32:39.770Z,982.26
2018-02-11T08:34:00.806Z,982.21
2018-02-11T08:34:39.752Z,982.23
2018-02-11T08:35:39.740Z,982.23
2018-02-11T08:36:39.739Z,982.21
2018-02-11T08:37:39.729Z,982.21
2018-02-11T08:38:39.724Z,982.20
2018-02-11T08:40:00.722Z,982.23
2018-02-11T08:40:39.713Z,982.21
2018-02-11T08:41:39.713Z,982.21
2018-02-11T08:42:39.706Z,982.22
2018-02-11T08:43:39.692Z,982.17
2018-02-11T08:44:39.695Z,982.19
2018-02-11T08:46:00.691Z,982.12
2018-02-11T08:46:39.671Z,982.15
2018-02-11T08:47:39.708Z,982.14
2018-02-11T08:48:39.660Z,982.14
2018-02-11T08:49:39.656Z,982.15
2018-02-11T08:50:39.647Z,982.12
2018-02-11T08:52:00.649Z,982.09
2018-02-11T08:52:39.652Z,982.17
2018-02-11T08:53:39.835Z,982.09
2018-02-11T08:54:39.651Z,982.10
2018-02-11T08:55:39.622Z,982.09
2018-02-11T08:56:39.620Z,982.09
2018-02-11T08:58:00.615Z,982.06
2018-02-11T08:58:39.602Z,982.09
2018-02-11T08:59:39.597Z,982.05
2018-02-11T09:00:39.591Z,982.07
2018-02-11T09:01:39.581Z,982.08
2018-02-11T09:02:39.572Z,982.05
2018-02-11T09:04:01.342Z,982.07
2018-02-11T09:04:39.561Z,982.03
2018-02-11T09:05:39.558Z,982.07
2018-02-11T09:06:39.549Z,982.10
2018-02-11T09:07:39.546Z,982.05
2018-02-11T09:08:39.538Z,982.05
2018-02-11T09:10:00.558Z,982.03
2018-02-11T09:10:39.577Z,982.04
2018-02-11T09:11:39.518Z,981.98
2018-02-11T09:12:39.791Z,982.02
2018-02-11T09:13:39.521Z,981.98
2018-02-11T09:14:39.501Z,981.92
2018-02-11T09:16:00.505Z,981.98
2018-02-11T09:16:39.494Z,981.94
2018-02-11T09:17:39.481Z,981.95
2018-02-11T09:18:39.475Z,981.88
2018-02-11T09:19:39.468Z,981.89
2018-02-11T09:20:39.465Z,981.81
2018-02-11T09:22:00.465Z,981.82
2018-02-11T09:22:39.457Z,981.81
2018-02-11T09:23:39.457Z,981.79
2018-02-11T09:24:39.443Z,981.83
2018-02-11T09:25:39.433Z,981.79
2018-02-11T09:26:39.431Z,981.73
2018-02-11T09:28:00.434Z,981.76
2018-02-11T09:28:39.417Z,981.77
2018-02-11T09:29:39.415Z,981.80
2018-02-11T09:30:39.404Z,981.77
2018-02-11T09:31:39.401Z,981.75
2018-02-11T09:32:39.400Z,981.63
2018-02-11T09:34:00.396Z,981.69
2018-02-11T09:34:39.377Z,981.68
2018-02-11T09:35:39.368Z,981.65
2018-02-11T09:36:39.368Z,981.67
2018-02-11T09:37:39.372Z,981.62
2018-02-11T09:38:39.350Z,981.60
2018-02-11T09:40:00.353Z,981.59
2018-02-11T09:40:39.345Z,981.52
2018-02-11T09:41:39.342Z,981.57
2018-02-11T09:42:39.328Z,981.56
2018-02-11T09:43:39.321Z,981.54
2018-02-11T09:44:39.313Z,981.51
2018-02-11T09:46:00.318Z,981.51
2018-02-11T09:46:39.305Z,981.52
2018-02-11T09:47:39.297Z,981.49
2018-02-11T09:48:39.282Z,981.47
2018-02-11T09:49:39.278Z,981.49
2018-02-11T09:50:39.272Z,981.44
2018-02-11T09:52:00.267Z,981.44
2018-02-11T09:52:39.257Z,981.47
2018-02-11T09:53:39.256Z,981.49
2018-02-11T09:54:39.252Z,981.49
2018-02-11T09:55:39.260Z,981.50
2018-02-11T09:56:39.228Z,981.51
2018-02-11T09:58:00.231Z,981.48
2018-02-11T09:58:39.225Z,981.49
2018-02-11T09:59:39.212Z,981.48
2018-02-11T10:00:39.203Z,981.53
2018-02-11T10:01:39.193Z,981.47
2018-02-11T10:02:39.185Z,981.47
2018-02-11T10:04:00.184Z,981.40
2018-02-11T10:04:39.192Z,981.46
2018-02-11T10:05:39.164Z,981.40
2018-02-11T10:06:39.164Z,981.47
2018-02-11T10:07:39.157Z,981.49
2018-02-11T10:08:39.141Z,981.47
2018-02-11T10:10:00.141Z,981.44
2018-02-11T10:10:39.127Z,981.47
2018-02-11T10:11:39.132Z,981.47
2018-02-11T10:12:39.183Z,981.49
2018-02-11T10:13:39.113Z,981.46
2018-02-11T10:14:39.110Z,981.43
2018-02-11T10:16:00.096Z,981.47
2018-02-11T10:16:39.088Z,981.47
2018-02-11T10:17:39.081Z,981.50
2018-02-11T10:18:39.082Z,981.45
2018-02-11T10:19:39.124Z,981.40
2018-02-11T10:20:39.082Z,981.41
2018-02-11T10:22:00.054Z,981.40
2018-02-11T10:22:39.057Z,981.39
2018-02-11T10:23:39.061Z,981.42
2018-02-11T10:24:39.053Z,981.41
2018-02-11T10:25:39.025Z,981.42
2018-02-11T10:26:39.011Z,981.41
2018-02-11T10:28:00.013Z,981.38
2018-02-11T10:28:39.000Z,981.35
2018-02-11T10:29:38.986Z,981.35
2018-02-11T10:30:38.983Z,981.35
2018-02-11T10:31:38.969Z,981.39
2018-02-11T10:32:38.972Z,981.34
2018-02-11T10:34:00.017Z,981.31
2018-02-11T10:34:38.953Z,981.32
2018-02-11T10:35:39.657Z,981.35
2018-02-11T10:36:38.938Z,981.29
2018-02-11T10:37:38.934Z,981.21
2018-02-11T10:38:38.922Z,981.25
2018-02-11T10:39:59.923Z,981.23
2018-02-11T10:40:38.900Z,981.18
2018-02-11T10:41:38.891Z,981.24
2018-02-11T10:42:38.893Z,981.24
2018-02-11T10:43:38.881Z,981.20
2018-02-11T10:44:38.879Z,981.20
2018-02-11T10:45:59.870Z,981.12
2018-02-11T10:46:38.859Z,981.15
2018-02-11T10:47:38.853Z,981.09
2018-02-11T10:48:38.848Z,981.10
2018-02-11T10:49:38.837Z,981.14
2018-02-11T10:50:38.828Z,981.19
2018-02-11T10:51:59.827Z,981.15
2018-02-11T10:52:38.818Z,981.17
2018-02-11T10:53:38.804Z,981.18
2018-02-11T10:54:38.806Z,981.16
2018-02-11T10:55:38.787Z,981.15
2018-02-11T10:56:38.777Z,981.15
2018-02-11T10:57:59.779Z,981.08
2018-02-11T10:58:38.773Z,981.11
2018-02-11T10:59:38.763Z,981.09
2018-02-11T11:00:38.758Z,981.13
2018-02-11T11:01:38.743Z,981.07
2018-02-11T11:02:38.737Z,981.12
2018-02-11T11:03:59.750Z,981.13
2018-02-11T11:04:38.723Z,981.10
2018-02-11T11:05:38.720Z,981.12
2018-02-11T11:06:38.709Z,981.13
2018-02-11T11:07:38.708Z,981.08
2018-02-11T11:08:38.694Z,981.11
2018-02-11T11:09:59.690Z,981.15
2018-02-11T11:10:38.885Z,981.12
2018-02-11T11:11:38.663Z,981.10
2018-02-11T11:12:38.669Z,981.08
2018-02-11T11:13:38.675Z,981.05
2018-02-11T11:14:38.647Z,981.12
2018-02-11T11:15:59.658Z,981.17
2018-02-11T11:16:38.628Z,981.19
2018-02-11T11:17:38.628Z,981.22
2018-02-11T11:18:38.621Z,981.21
2018-02-11T11:19:38.608Z,981.17
2018-02-11T11:20:38.597Z,981.13
2018-02-11T11:21:59.595Z,981.17
2018-02-11T11:22:38.598Z,981.26
2018-02-11T11:23:38.581Z,981.15
2018-02-11T11:24:38.565Z,981.20
2018-02-11T11:25:38.585Z,981.17
2018-02-11T11:26:38.560Z,981.21
2018-02-11T11:27:59.548Z,981.17
2018-02-11T11:28:38.547Z,981.13
2018-02-11T11:29:38.531Z,981.09
2018-02-11T11:30:38.529Z,981.10
2018-02-11T11:31:38.513Z,981.15
2018-02-11T11:32:38.505Z,981.13
2018-02-11T11:33:59.505Z,981.15
2018-02-11T11:34:38.496Z,981.12
2018-02-11T11:35:38.485Z,981.17
2018-02-11T11:36:38.482Z,981.11
2018-02-11T11:37:38.470Z,981.12
2018-02-11T11:38:38.461Z,981.18
2018-02-11T11:39:59.463Z,981.17
2018-02-11T11:40:38.447Z,981.15
2018-02-11T11:41:38.444Z,981.21
2018-02-11T11:42:38.434Z,981.14
2018-02-11T11:43:38.419Z,981.17
2018-02-11T11:44:38.416Z,981.21
2018-02-11T11:45:59.425Z,981.16
2018-02-11T11:46:38.395Z,981.16
2018-02-11T11:47:38.388Z,981.11
2018-02-11T11:48:38.380Z,981.11
2018-02-11T11:49:38.377Z,981.09
2018-02-11T11:50:38.366Z,981.10
2018-02-11T11:51:59.371Z,981.09
2018-02-11T11:52:38.358Z,981.05
2018-02-11T11:53:38.347Z,981.02
2018-02-11T11:54:38.344Z,981.05
2018-02-11T11:55:38.402Z,981.06
2018-02-11T11:56:38.321Z,981.01
2018-02-11T11:57:59.334Z,981.03
2018-02-11T11:58:38.338Z,980.95
2018-02-11T11:59:38.297Z,981.07
2018-02-11T12:00:38.323Z,981.04
2018-02-11T12:01:38.286Z,981.06
2018-02-11T12:02:38.278Z,981.04
2018-02-11T12:03:59.276Z,981.05
2018-02-11T12:04:38.258Z,981.02
2018-02-11T12:05:38.271Z,980.95
2018-02-11T12:06:38.259Z,980.95
2018-02-11T12:07:38.239Z,980.93
2018-02-11T12:08:38.237Z,980.95
2018-02-11T12:09:59.238Z,980.92
2018-02-11T12:10:38.218Z,980.98
2018-02-11T12:11:38.220Z,980.93
2018-02-11T12:12:38.203Z,980.90
2018-02-11T12:13:38.192Z,980.95
2018-02-11T12:14:38.187Z,980.91
2018-02-11T12:15:59.183Z,980.90
2018-02-11T12:16:38.169Z,980.88
2018-02-11T12:17:38.168Z,980.90
2018-02-11T12:18:38.163Z,980.90
2018-02-11T12:19:38.145Z,980.92
2018-02-11T12:20:38.143Z,980.90
2018-02-11T12:21:59.142Z,980.90
2018-02-11T12:22:38.121Z,980.94
2018-02-11T12:23:38.119Z,980.95
2018-02-11T12:24:38.108Z,980.94
2018-02-11T12:25:38.100Z,980.88
2018-02-11T12:26:38.089Z,980.97
2018-02-11T12:27:59.100Z,980.91
2018-02-11T12:28:38.070Z,980.93